CheckWX is a tool to help pilots better visualize weather data.  It is not intended as a substitute for an official pre-flight weather briefing.

20:38:28 UTC

KSMQ METAR
Somerset Airport
Somerville, New Jersey, USA
Current

45 mins ago

KSMQ 241953Z AUTO 12007KT 10SM CLR 11/M01 A3026 RMK AO2 SLP250 T01061006
Observed
Jan-24 @ 19:53 UTC
Wind
  • 120° at 7 KTS
Visibility
10 SM
Flight Rules
VFR
Cloud Levels
  • Clear skies
Temperature
11°C / 52°F
Dewpoint
-1°C / 30°F
Humidity
44%
Altimeter
30.26" Hg
Pressure
1024.72 hPa
Previous

2 hours ago

KSMQ 241853Z AUTO 11006KT 9SM CLR 12/M01 A3027 RMK AO2 SLP252 T01221006
Observed
Jan-24 @ 18:53 UTC
Wind
  • 110° at 6 KTS
Visibility
9 SM
Flight Rules
VFR
Cloud Levels
  • Clear skies
Temperature
12°C / 54°F
Dewpoint
-1°C / 30°F
Humidity
41%
Altimeter
30.27" Hg
Pressure
1025.02 hPa
Previous

3 hours ago

KSMQ 241753Z AUTO 14004KT 10SM CLR 12/M02 A3029 RMK AO2 SLP260 T01221017 10128 21044 58025
Observed
Jan-24 @ 17:53 UTC
Wind
  • 140° at 4 KTS
Visibility
10 SM
Flight Rules
VFR
Cloud Levels
  • Clear skies
Temperature
12°C / 54°F
Dewpoint
-2°C / 28°F
Humidity
38%
Altimeter
30.29" Hg
Pressure
1025.72 hPa